EST,Max TemperatureF,Mean TemperatureF,Min TemperatureF,Max Dew PointF,MeanDew PointF,Min DewpointF,Max Humidity, Mean Humidity, Min Humidity, Max Sea Level PressureIn, Mean Sea Level PressureIn, Min Sea Level PressureIn, Max VisibilityMiles, Mean VisibilityMiles, Min VisibilityMiles, Max Wind SpeedMPH, Mean Wind SpeedMPH, Max Gust SpeedMPH,PrecipitationIn, CloudCover, Events, WindDirDegrees
2014-2-1,57,42,26,31,24,17,73,52,26,30.16,30.03,29.91,10,10,10,14,2,,0.00,3,,193
2014-2-2,52,42,32,46,38,26,97,88,42,30.14,30.02,29.92,10,5,2,16,7,20,0.34,8,Rain-Snow,275
2014-2-3,32,29,26,30,25,23,93,87,78,30.34,30.15,30.00,10,4,0,17,9,,0.54,8,Fog-Rain-Snow,8
2014-2-4,32,28,24,30,25,20,92,84,73,30.36,30.16,29.92,10,6,2,12,5,,0.19,6,Rain,19
2014-2-5,42,33,24,39,29,16,96,86,66,30.24,29.85,29.63,10,5,1,24,9,38,0.92,8,Rain-Snow,278
2014-2-6,28,24,21,18,16,13,85,71,56,30.39,30.32,30.23,10,8,2,12,6,17,0.00,8,Snow,268
2014-2-7,25,21,15,18,13,10,84,69,57,30.39,30.35,30.30,10,8,4,12,7,,0.00,6,Snow,262
2014-2-8,28,20,12,20,15,9,88,76,53,30.36,30.25,30.14,10,10,6,7,2,,0.00,6,Snow,15
2014-2-9,33,28,23,30,25,14,93,85,65,30.17,30.05,29.94,10,4,1,15,5,22,0.10,8,Rain-Snow,252
2014-2-10,23,16,9,14,9,4,80,67,48,30.36,30.23,30.13,10,9,2,12,7,,0.00,5,Snow,279
2014-2-11,23,12,1,9,4,-3,92,69,44,30.45,30.40,30.32,10,8,2,7,1,,0.00,1,,41
2014-2-12,34,18,3,26,10,-1,89,65,31,30.41,30.21,30.02,10,7,1,8,3,,0.05,3,Snow,53
2014-2-13,32,28,25,29,25,22,92,87,82,30.01,29.73,29.60,10,3,0,14,8,,0.33,8,Fog-Snow,7
2014-2-14,42,34,26,31,24,18,96,70,43,29.71,29.66,29.58,10,8,0,20,9,37,0.05,7,Fog-Snow,230
2014-2-15,33,26,19,31,21,10,96,80,57,30.09,29.82,29.58,10,3,0,14,9,20,0.19,8,Fog-Snow,310
2014-2-16,28,22,16,23,18,9,85,78,69,30.29,30.09,29.97,10,5,2,12,6,,0.01,8,Snow,246
2014-2-17,42,26,10,30,15,7,88,62,29,30.39,30.15,29.83,10,8,2,21,8,28,0.07,5,Rain-Snow,66
2014-2-18,48,40,33,33,26,18,79,58,30,30.10,29.99,29.90,10,10,7,23,15,33,0.01,4,Rain,224
2014-2-19,54,44,27,44,33,19,93,69,36,30.14,29.88,29.75,10,9,2,25,6,37,0.18,4,Rain,228
2014-2-20,62,43,25,46,35,23,92,69,49,30.13,29.93,29.70,10,10,9,15,3,22,0.06,1,Rain,174
2014-2-21,63,51,39,52,36,19,93,64,35,30.02,29.78,29.59,10,9,3,30,13,48,0.30,4,Rain,227
2014-2-22,55,45,34,24,20,16,67,40,24,30.09,30.02,29.96,10,10,10,18,8,28,0.00,0,,219
2014-2-23,51,40,28,36,30,23,96,78,43,30.06,30.02,29.94,10,7,1,13,5,23,0.25,5,Rain-Snow,302
2014-2-24,33,28,23,28,16,7,85,61,35,30.19,30.12,30.05,10,10,10,18,9,25,0.00,3,,264
2014-2-25,28,26,23,19,17,9,85,71,47,30.14,30.09,30.01,10,5,1,13,7,20,0.03,8,Snow,256
2014-2-26,26,22,17,20,12,2,85,67,38,30.06,29.95,29.84,10,6,1,15,9,23,0.01,5,Snow,269
2014-2-27,27,18,10,6,3,-1,64,51,36,30.17,29.89,29.75,10,10,9,22,13,34,0.00,3,,267
2014-2-28,30,16,3,10,0,-4,73,49,24,30.32,30.23,30.16,10,10,10,6,3,,0.00,0,,42